sensor_id;sensor_type;location;lat;lon;timestamp;temperature;humidity
57282;DHT22;43129;52.628;10.098;2023-07-20T00:02:24;16.00;99.90
57282;DHT22;43129;52.628;10.098;2023-07-20T00:04:55;15.80;99.90
57282;DHT22;43129;52.628;10.098;2023-07-20T00:07:25;15.80;99.90
57282;DHT22;43129;52.628;10.098;2023-07-20T00:09:51;15.90;99.90
57282;DHT22;43129;52.628;10.098;2023-07-20T00:12:16;15.90;99.90
57282;DHT22;43129;52.628;10.098;2023-07-20T00:14:42;15.80;99.90
57282;DHT22;43129;52.628;10.098;2023-07-20T00:17:12;15.60;99.90
57282;DHT22;43129;52.628;10.098;2023-07-20T00:19:40;15.60;99.90
57282;DHT22;43129;52.628;10.098;2023-07-20T00:22:08;15.60;99.90
57282;DHT22;43129;52.628;10.098;2023-07-20T00:24:36;15.60;99.90
57282;DHT22;43129;52.628;10.098;2023-07-20T00:27:02;15.70;99.90
57282;DHT22;43129;52.628;10.098;2023-07-20T00:29:28;15.70;99.90
57282;DHT22;43129;52.628;10.098;2023-07-20T00:31:53;15.80;99.90
57282;DHT22;43129;52.628;10.098;2023-07-20T00:34:19;15.80;99.90
57282;DHT22;43129;52.628;10.098;2023-07-20T00:36:47;15.70;99.90
57282;DHT22;43129;52.628;10.098;2023-07-20T00:39:14;15.60;99.90
57282;DHT22;43129;52.628;10.098;2023-07-20T00:41:40;15.80;99.90
57282;DHT22;43129;52.628;10.098;2023-07-20T00:44:05;15.70;99.90
57282;DHT22;43129;52.628;10.098;2023-07-20T00:46:33;15.50;99.90
57282;DHT22;43129;52.628;10.098;2023-07-20T00:48:59;15.40;99.90
57282;DHT22;43129;52.628;10.098;2023-07-20T00:51:26;15.50;99.90
57282;DHT22;43129;52.628;10.098;2023-07-20T00:53:53;15.40;99.90
57282;DHT22;43129;52.628;10.098;2023-07-20T00:56:19;15.40;99.90
57282;DHT22;43129;52.628;10.098;2023-07-20T00:58:47;15.50;99.90
57282;DHT22;43129;52.628;10.098;2023-07-20T01:01:13;15.50;99.90
57282;DHT22;43129;52.628;10.098;2023-07-20T01:03:39;15.60;99.90
57282;DHT22;43129;52.628;10.098;2023-07-20T01:09:18;15.40;99.90
57282;DHT22;43129;52.628;10.098;2023-07-20T01:14:20;15.50;99.90
57282;DHT22;43129;52.628;10.098;2023-07-20T01:16:45;15.60;99.90
57282;DHT22;43129;52.628;10.098;2023-07-20T01:19:13;15.60;99.90
57282;DHT22;43129;52.628;10.098;2023-07-20T01:30:14;15.50;99.90
57282;DHT22;43129;52.628;10.098;2023-07-20T01:32:42;15.40;99.90
57282;DHT22;43129;52.628;10.098;2023-07-20T01:35:13;15.50;99.90
57282;DHT22;43129;52.628;10.098;2023-07-20T01:37:43;15.50;99.90
57282;DHT22;43129;52.628;10.098;2023-07-20T01:40:13;15.50;99.90
57282;DHT22;43129;52.628;10.098;2023-07-20T01:42:46;15.50;99.90
57282;DHT22;43129;52.628;10.098;2023-07-20T01:45:17;15.30;99.90
57282;DHT22;43129;52.628;10.098;2023-07-20T01:47:43;15.20;99.90
57282;DHT22;43129;52.628;10.098;2023-07-20T01:50:09;15.10;99.90
57282;DHT22;43129;52.628;10.098;2023-07-20T01:52:34;15.00;99.90
57282;DHT22;43129;52.628;10.098;2023-07-20T01:55:00;15.00;99.90
57282;DHT22;43129;52.628;10.098;2023-07-20T01:57:26;15.00;99.90
57282;DHT22;43129;52.628;10.098;2023-07-20T01:59:51;15.00;99.90
57282;DHT22;43129;52.628;10.098;2023-07-20T02:02:19;15.00;99.90
57282;DHT22;43129;52.628;10.098;2023-07-20T02:04:46;15.00;99.90
57282;DHT22;43129;52.628;10.098;2023-07-20T02:07:11;14.90;99.90
57282;DHT22;43129;52.628;10.098;2023-07-20T02:09:37;14.90;99.90
57282;DHT22;43129;52.628;10.098;2023-07-20T02:12:03;14.80;99.90
57282;DHT22;43129;52.628;10.098;2023-07-20T02:14:28;14.80;99.90
57282;DHT22;43129;52.628;10.098;2023-07-20T02:16:54;14.80;99.90
57282;DHT22;43129;52.628;10.098;2023-07-20T02:19:25;14.90;99.90
57282;DHT22;43129;52.628;10.098;2023-07-20T02:21:50;14.80;99.90
57282;DHT22;43129;52.628;10.098;2023-07-20T02:24:18;14.80;99.90
57282;DHT22;43129;52.628;10.098;2023-07-20T02:26:44;14.70;99.90
57282;DHT22;43129;52.628;10.098;2023-07-20T02:29:10;14.70;99.90
57282;DHT22;43129;52.628;10.098;2023-07-20T02:31:39;14.60;99.90
57282;DHT22;43129;52.628;10.098;2023-07-20T02:34:08;14.60;99.90
57282;DHT22;43129;52.628;10.098;2023-07-20T02:36:35;14.60;99.90
57282;DHT22;43129;52.628;10.098;2023-07-20T02:39:03;14.70;99.90
57282;DHT22;43129;52.628;10.098;2023-07-20T02:41:33;14.70;99.90
57282;DHT22;43129;52.628;10.098;2023-07-20T02:43:59;14.60;99.90
57282;DHT22;43129;52.628;10.098;2023-07-20T02:46:24;14.70;99.90
57282;DHT22;43129;52.628;10.098;2023-07-20T02:48:50;14.80;99.90
57282;DHT22;43129;52.628;10.098;2023-07-20T02:51:20;14.80;99.90
57282;DHT22;43129;52.628;10.098;2023-07-20T02:53:46;14.80;99.90
57282;DHT22;43129;52.628;10.098;2023-07-20T02:56:11;14.80;99.90
57282;DHT22;43129;52.628;10.098;2023-07-20T02:58:42;14.80;99.90
57282;DHT22;43129;52.628;10.098;2023-07-20T03:01:16;14.70;99.90
57282;DHT22;43129;52.628;10.098;2023-07-20T03:03:42;14.70;99.90
57282;DHT22;43129;52.628;10.098;2023-07-20T03:06:13;14.70;99.90
57282;DHT22;43129;52.628;10.098;2023-07-20T03:08:38;14.60;99.90
57282;DHT22;43129;52.628;10.098;2023-07-20T03:11:04;14.70;99.90
57282;DHT22;43129;52.628;10.098;2023-07-20T03:13:32;14.70;99.90
57282;DHT22;43129;52.628;10.098;2023-07-20T03:15:57;14.80;99.90
57282;DHT22;43129;52.628;10.098;2023-07-20T03:18:23;14.80;99.90
57282;DHT22;43129;52.628;10.098;2023-07-20T03:20:49;14.70;99.90
57282;DHT22;43129;52.628;10.098;2023-07-20T03:23:15;14.60;99.90
57282;DHT22;43129;52.628;10.098;2023-07-20T03:25:41;14.70;99.90
57282;DHT22;43129;52.628;10.098;2023-07-20T03:28:09;14.80;99.90
57282;DHT22;43129;52.628;10.098;2023-07-20T03:30:35;14.80;99.90
57282;DHT22;43129;52.628;10.098;2023-07-20T03:33:01;14.70;99.90
57282;DHT22;43129;52.628;10.098;2023-07-20T03:35:30;14.80;99.90
57282;DHT22;43129;52.628;10.098;2023-07-20T03:37:56;14.70;99.90
57282;DHT22;43129;52.628;10.098;2023-07-20T03:40:24;14.70;99.90
57282;DHT22;43129;52.628;10.098;2023-07-20T03:42:50;14.70;99.90
57282;DHT22;43129;52.628;10.098;2023-07-20T03:45:18;14.70;99.90
57282;DHT22;43129;52.628;10.098;2023-07-20T03:47:44;14.80;99.90
57282;DHT22;43129;52.628;10.098;2023-07-20T03:50:12;14.70;99.90
57282;DHT22;43129;52.628;10.098;2023-07-20T03:52:38;14.70;99.90
57282;DHT22;43129;52.628;10.098;2023-07-20T03:55:03;14.80;99.90
57282;DHT22;43129;52.628;10.098;2023-07-20T03:57:34;14.90;99.90
57282;DHT22;43129;52.628;10.098;2023-07-20T04:00:00;14.90;99.90
57282;DHT22;43129;52.628;10.098;2023-07-20T04:02:25;15.10;99.90
57282;DHT22;43129;52.628;10.098;2023-07-20T04:04:53;15.10;99.90
57282;DHT22;43129;52.628;10.098;2023-07-20T04:07:19;15.10;99.90
57282;DHT22;43129;52.628;10.098;2023-07-20T04:09:45;15.10;99.90
57282;DHT22;43129;52.628;10.098;2023-07-20T04:12:10;15.20;99.90
57282;DHT22;43129;52.628;10.098;2023-07-20T04:14:36;15.20;99.90
57282;DHT22;43129;52.628;10.098;2023-07-20T04:17:04;15.20;99.90
57282;DHT22;43129;52.628;10.098;2023-07-20T04:19:32;15.20;99.90
57282;DHT22;43129;52.628;10.098;2023-07-20T04:21:57;15.30;99.90
57282;DHT22;43129;52.628;10.098;2023-07-20T04:24:23;15.40;99.90
57282;DHT22;43129;52.628;10.098;2023-07-20T04:26:49;15.40;99.90
57282;DHT22;43129;52.628;10.098;2023-07-20T04:29:14;15.40;99.90
57282;DHT22;43129;52.628;10.098;2023-07-20T04:31:40;15.20;99.90
57282;DHT22;43129;52.628;10.098;2023-07-20T04:34:05;15.20;99.90
57282;DHT22;43129;52.628;10.098;2023-07-20T04:36:34;15.20;99.90
57282;DHT22;43129;52.628;10.098;2023-07-20T04:38:59;15.30;99.90
57282;DHT22;43129;52.628;10.098;2023-07-20T04:41:25;15.20;99.90
57282;DHT22;43129;52.628;10.098;2023-07-20T04:43:51;15.10;99.90
57282;DHT22;43129;52.628;10.098;2023-07-20T04:46:17;15.00;99.90
57282;DHT22;43129;52.628;10.098;2023-07-20T04:48:46;15.00;99.90
57282;DHT22;43129;52.628;10.098;2023-07-20T04:51:13;15.00;99.90
57282;DHT22;43129;52.628;10.098;2023-07-20T04:53:42;14.80;99.90
57282;DHT22;43129;52.628;10.098;2023-07-20T04:56:08;14.80;99.90
57282;DHT22;43129;52.628;10.098;2023-07-20T04:58:33;14.70;99.90
57282;DHT22;43129;52.628;10.098;2023-07-20T05:00:59;14.70;99.90
57282;DHT22;43129;52.628;10.098;2023-07-20T05:03:25;14.60;99.90
57282;DHT22;43129;52.628;10.098;2023-07-20T05:05:53;14.50;99.90
57282;DHT22;43129;52.628;10.098;2023-07-20T05:08:19;14.60;99.90
57282;DHT22;43129;52.628;10.098;2023-07-20T05:10:45;14.50;99.90
57282;DHT22;43129;52.628;10.098;2023-07-20T05:13:10;14.50;99.90
57282;DHT22;43129;52.628;10.098;2023-07-20T05:15:39;14.50;99.90
57282;DHT22;43129;52.628;10.098;2023-07-20T05:18:04;14.50;99.90
57282;DHT22;43129;52.628;10.098;2023-07-20T05:20:31;14.60;99.90
57282;DHT22;43129;52.628;10.098;2023-07-20T05:22:59;14.60;99.90
57282;DHT22;43129;52.628;10.098;2023-07-20T05:25:24;14.70;99.90
57282;DHT22;43129;52.628;10.098;2023-07-20T05:27:51;14.70;99.90
57282;DHT22;43129;52.628;10.098;2023-07-20T05:30:17;14.80;99.90
57282;DHT22;43129;52.628;10.098;2023-07-20T05:32:45;14.90;99.90
57282;DHT22;43129;52.628;10.098;2023-07-20T05:35:19;14.90;99.90
57282;DHT22;43129;52.628;10.098;2023-07-20T05:37:45;15.00;99.90
57282;DHT22;43129;52.628;10.098;2023-07-20T05:40:11;15.00;99.90
57282;DHT22;43129;52.628;10.098;2023-07-20T05:42:38;14.90;99.90
57282;DHT22;43129;52.628;10.098;2023-07-20T05:45:04;15.00;99.90
57282;DHT22;43129;52.628;10.098;2023-07-20T05:47:30;15.00;99.90
57282;DHT22;43129;52.628;10.098;2023-07-20T05:49:56;15.00;99.90
57282;DHT22;43129;52.628;10.098;2023-07-20T05:52:22;14.90;99.90
57282;DHT22;43129;52.628;10.098;2023-07-20T05:54:47;15.00;99.90
57282;DHT22;43129;52.628;10.098;2023-07-20T05:57:13;15.10;99.90
57282;DHT22;43129;52.628;10.098;2023-07-20T05:59:41;15.00;99.90
57282;DHT22;43129;52.628;10.098;2023-07-20T06:02:10;14.90;99.90
57282;DHT22;43129;52.628;10.098;2023-07-20T06:04:35;14.80;99.90
57282;DHT22;43129;52.628;10.098;2023-07-20T06:07:01;14.90;99.90
57282;DHT22;43129;52.628;10.098;2023-07-20T06:09:27;14.80;99.90
57282;DHT22;43129;52.628;10.098;2023-07-20T06:11:56;14.80;99.90
57282;DHT22;43129;52.628;10.098;2023-07-20T06:14:22;14.90;99.90
57282;DHT22;43129;52.628;10.098;2023-07-20T06:16:47;15.00;99.90
57282;DHT22;43129;52.628;10.098;2023-07-20T06:19:16;15.00;99.90
57282;DHT22;43129;52.628;10.098;2023-07-20T06:21:41;15.20;99.90
57282;DHT22;43129;52.628;10.098;2023-07-20T06:24:09;15.40;99.90
57282;DHT22;43129;52.628;10.098;2023-07-20T06:26:37;15.40;99.90
57282;DHT22;43129;52.628;10.098;2023-07-20T06:29:08;15.50;99.90
57282;DHT22;43129;52.628;10.098;2023-07-20T06:31:35;15.50;99.90
57282;DHT22;43129;52.628;10.098;2023-07-20T06:34:03;15.50;99.90
57282;DHT22;43129;52.628;10.098;2023-07-20T06:36:28;15.50;99.90
57282;DHT22;43129;52.628;10.098;2023-07-20T06:38:55;15.60;99.90
57282;DHT22;43129;52.628;10.098;2023-07-20T06:41:21;15.80;99.90
57282;DHT22;43129;52.628;10.098;2023-07-20T06:43:47;15.90;99.90
57282;DHT22;43129;52.628;10.098;2023-07-20T06:46:15;15.90;99.90
57282;DHT22;43129;52.628;10.098;2023-07-20T06:48:41;16.00;99.90
57282;DHT22;43129;52.628;10.098;2023-07-20T06:51:07;16.10;99.90
57282;DHT22;43129;52.628;10.098;2023-07-20T06:53:33;16.10;99.90
57282;DHT22;43129;52.628;10.098;2023-07-20T06:55:58;16.00;99.90
57282;DHT22;43129;52.628;10.098;2023-07-20T06:58:24;15.90;99.90
57282;DHT22;43129;52.628;10.098;2023-07-20T07:00:50;15.90;99.90
57282;DHT22;43129;52.628;10.098;2023-07-20T07:03:21;16.10;99.90
57282;DHT22;43129;52.628;10.098;2023-07-20T07:05:47;16.20;99.90
57282;DHT22;43129;52.628;10.098;2023-07-20T07:08:12;16.40;99.90
57282;DHT22;43129;52.628;10.098;2023-07-20T07:10:38;16.40;99.90
57282;DHT22;43129;52.628;10.098;2023-07-20T07:13:04;16.40;99.90
57282;DHT22;43129;52.628;10.098;2023-07-20T07:15:29;16.50;99.90
57282;DHT22;43129;52.628;10.098;2023-07-20T07:17:55;16.60;99.90
57282;DHT22;43129;52.628;10.098;2023-07-20T07:20:22;16.60;99.90
57282;DHT22;43129;52.628;10.098;2023-07-20T07:22:50;16.60;99.90
57282;DHT22;43129;52.628;10.098;2023-07-20T07:25:19;16.80;99.90
57282;DHT22;43129;52.628;10.098;2023-07-20T07:27:45;17.00;99.90
57282;DHT22;43129;52.628;10.098;2023-07-20T07:30:11;17.10;99.90
57282;DHT22;43129;52.628;10.098;2023-07-20T07:32:37;17.10;99.90
57282;DHT22;43129;52.628;10.098;2023-07-20T07:35:05;17.40;99.90
57282;DHT22;43129;52.628;10.098;2023-07-20T07:37:31;17.50;99.90
57282;DHT22;43129;52.628;10.098;2023-07-20T07:39:57;18.10;99.90
57282;DHT22;43129;52.628;10.098;2023-07-20T07:42:25;18.50;99.90
57282;DHT22;43129;52.628;10.098;2023-07-20T07:44:50;18.40;99.90
57282;DHT22;43129;52.628;10.098;2023-07-20T07:47:16;18.50;99.90
57282;DHT22;43129;52.628;10.098;2023-07-20T07:49:44;18.60;99.90
57282;DHT22;43129;52.628;10.098;2023-07-20T07:52:10;19.30;99.90
57282;DHT22;43129;52.628;10.098;2023-07-20T07:54:38;19.80;99.10
57282;DHT22;43129;52.628;10.098;2023-07-20T07:57:04;20.80;97.10
57282;DHT22;43129;52.628;10.098;2023-07-20T07:59:31;20.30;95.80
57282;DHT22;43129;52.628;10.098;2023-07-20T08:02:02;20.30;95.10
57282;DHT22;43129;52.628;10.098;2023-07-20T08:04:28;20.20;95.30
57282;DHT22;43129;52.628;10.098;2023-07-20T08:06:54;19.50;97.20
57282;DHT22;43129;52.628;10.098;2023-07-20T08:09:21;19.60;97.30
57282;DHT22;43129;52.628;10.098;2023-07-20T08:11:48;20.30;96.70
57282;DHT22;43129;52.628;10.098;2023-07-20T08:14:18;21.50;93.70
57282;DHT22;43129;52.628;10.098;2023-07-20T08:16:44;21.30;93.90
57282;DHT22;43129;52.628;10.098;2023-07-20T08:19:13;21.30;92.40
57282;DHT22;43129;52.628;10.098;2023-07-20T08:21:39;21.10;92.00
57282;DHT22;43129;52.628;10.098;2023-07-20T08:24:05;21.10;92.40
57282;DHT22;43129;52.628;10.098;2023-07-20T08:26:33;20.80;92.10
57282;DHT22;43129;52.628;10.098;2023-07-20T08:28:58;21.40;89.80
57282;DHT22;43129;52.628;10.098;2023-07-20T08:31:26;21.20;89.60
57282;DHT22;43129;52.628;10.098;2023-07-20T08:33:53;21.60;89.70
57282;DHT22;43129;52.628;10.098;2023-07-20T08:36:19;20.50;90.20
57282;DHT22;43129;52.628;10.098;2023-07-20T08:38:44;20.50;91.70
57282;DHT22;43129;52.628;10.098;2023-07-20T08:41:13;20.80;91.40
57282;DHT22;43129;52.628;10.098;2023-07-20T08:43:42;21.00;90.70
57282;DHT22;43129;52.628;10.098;2023-07-20T08:46:11;21.20;87.00
57282;DHT22;43129;52.628;10.098;2023-07-20T08:48:41;20.60;88.50
57282;DHT22;43129;52.628;10.098;2023-07-20T08:51:07;20.40;89.70
57282;DHT22;43129;52.628;10.098;2023-07-20T08:53:36;20.40;90.00
57282;DHT22;43129;52.628;10.098;2023-07-20T08:56:05;21.00;89.70
57282;DHT22;43129;52.628;10.098;2023-07-20T08:58:32;21.70;85.70
57282;DHT22;43129;52.628;10.098;2023-07-20T09:01:03;22.80;77.80
57282;DHT22;43129;52.628;10.098;2023-07-20T09:03:29;22.90;75.80
57282;DHT22;43129;52.628;10.098;2023-07-20T09:05:57;23.10;74.20
57282;DHT22;43129;52.628;10.098;2023-07-20T09:08:23;23.00;71.60
57282;DHT22;43129;52.628;10.098;2023-07-20T09:10:49;23.10;71.50
57282;DHT22;43129;52.628;10.098;2023-07-20T09:13:15;23.20;66.60
57282;DHT22;43129;52.628;10.098;2023-07-20T09:15:47;22.20;68.90
57282;DHT22;43129;52.628;10.098;2023-07-20T09:18:31;21.60;69.70
57282;DHT22;43129;52.628;10.098;2023-07-20T09:21:04;21.80;71.30
57282;DHT22;43129;52.628;10.098;2023-07-20T09:23:36;21.70;67.90
57282;DHT22;43129;52.628;10.098;2023-07-20T09:26:20;21.50;69.10
57282;DHT22;43129;52.628;10.098;2023-07-20T09:28:52;22.50;68.10
57282;DHT22;43129;52.628;10.098;2023-07-20T09:31:21;22.30;64.70
57282;DHT22;43129;52.628;10.098;2023-07-20T09:33:52;22.60;62.50
57282;DHT22;43129;52.628;10.098;2023-07-20T09:36:23;22.70;60.50
57282;DHT22;43129;52.628;10.098;2023-07-20T09:38:49;22.40;58.90
57282;DHT22;43129;52.628;10.098;2023-07-20T09:41:15;22.10;59.30
57282;DHT22;43129;52.628;10.098;2023-07-20T09:43:41;21.80;60.50
57282;DHT22;43129;52.628;10.098;2023-07-20T09:46:07;21.90;61.20
57282;DHT22;43129;52.628;10.098;2023-07-20T09:48:36;22.30;61.10
57282;DHT22;43129;52.628;10.098;2023-07-20T09:51:02;23.60;56.90
57282;DHT22;43129;52.628;10.098;2023-07-20T09:53:28;24.50;54.60
57282;DHT22;43129;52.628;10.098;2023-07-20T09:55:55;26.00;50.20
57282;DHT22;43129;52.628;10.098;2023-07-20T09:58:25;26.40;49.20
57282;DHT22;43129;52.628;10.098;2023-07-20T10:00:51;25.80;48.00
57282;DHT22;43129;52.628;10.098;2023-07-20T10:03:30;25.40;49.10
57282;DHT22;43129;52.628;10.098;2023-07-20T10:06:05;26.40;47.20
57282;DHT22;43129;52.628;10.098;2023-07-20T10:08:41;26.10;45.70
57282;DHT22;43129;52.628;10.098;2023-07-20T10:11:07;25.70;45.90
57282;DHT22;43129;52.628;10.098;2023-07-20T10:13:37;25.50;46.20
57282;DHT22;43129;52.628;10.098;2023-07-20T10:16:07;24.20;48.60
57282;DHT22;43129;52.628;10.098;2023-07-20T10:18:51;24.40;49.60
57282;DHT22;43129;52.628;10.098;2023-07-20T10:21:21;24.60;49.70
57282;DHT22;43129;52.628;10.098;2023-07-20T10:23:48;24.80;47.80
57282;DHT22;43129;52.628;10.098;2023-07-20T10:26:14;25.00;47.40
57282;DHT22;43129;52.628;10.098;2023-07-20T10:28:40;25.70;47.80
57282;DHT22;43129;52.628;10.098;2023-07-20T10:31:12;25.60;47.40
57282;DHT22;43129;52.628;10.098;2023-07-20T10:33:41;25.60;45.30
57282;DHT22;43129;52.628;10.098;2023-07-20T10:36:06;25.60;39.80
57282;DHT22;43129;52.628;10.098;2023-07-20T10:41:37;24.50;43.20
57282;DHT22;43129;52.628;10.098;2023-07-20T10:44:06;24.20;45.80
57282;DHT22;43129;52.628;10.098;2023-07-20T10:49:07;23.80;43.20
57282;DHT22;43129;52.628;10.098;2023-07-20T10:51:43;24.50;43.10
57282;DHT22;43129;52.628;10.098;2023-07-20T10:57:30;25.30;40.40
57282;DHT22;43129;52.628;10.098;2023-07-20T11:00:12;25.30;40.30
57282;DHT22;43129;52.628;10.098;2023-07-20T11:02:49;25.40;38.80
57282;DHT22;43129;52.628;10.098;2023-07-20T11:05:40;25.10;40.60
57282;DHT22;43129;52.628;10.098;2023-07-20T11:08:11;25.40;39.80
57282;DHT22;43129;52.628;10.098;2023-07-20T11:10:37;25.00;39.60
57282;DHT22;43129;52.628;10.098;2023-07-20T11:13:17;24.60;41.60
57282;DHT22;43129;52.628;10.098;2023-07-20T11:18:27;24.90;39.30
57282;DHT22;43129;52.628;10.098;2023-07-20T11:20:53;25.80;38.00
57282;DHT22;43129;52.628;10.098;2023-07-20T11:23:22;26.60;37.60
57282;DHT22;43129;52.628;10.098;2023-07-20T11:25:50;26.60;36.00
57282;DHT22;43129;52.628;10.098;2023-07-20T11:28:16;26.40;36.80
57282;DHT22;43129;52.628;10.098;2023-07-20T11:30:41;26.90;35.80
57282;DHT22;43129;52.628;10.098;2023-07-20T11:33:10;26.30;36.20
57282;DHT22;43129;52.628;10.098;2023-07-20T11:35:42;25.90;37.00
57282;DHT22;43129;52.628;10.098;2023-07-20T11:38:08;25.50;37.50
57282;DHT22;43129;52.628;10.098;2023-07-20T11:40:34;25.20;38.10
57282;DHT22;43129;52.628;10.098;2023-07-20T11:43:02;26.40;37.20
57282;DHT22;43129;52.628;10.098;2023-07-20T11:45:32;27.80;33.80
57282;DHT22;43129;52.628;10.098;2023-07-20T11:47:58;27.30;32.80
57282;DHT22;43129;52.628;10.098;2023-07-20T11:50:26;26.50;34.40
57282;DHT22;43129;52.628;10.098;2023-07-20T11:52:54;26.70;34.60
57282;DHT22;43129;52.628;10.098;2023-07-20T11:55:23;26.30;34.80
57282;DHT22;43129;52.628;10.098;2023-07-20T11:58:10;26.00;35.50
57282;DHT22;43129;52.628;10.098;2023-07-20T12:00:38;24.70;38.70
57282;DHT22;43129;52.628;10.098;2023-07-20T12:03:07;24.90;40.20
57282;DHT22;43129;52.628;10.098;2023-07-20T12:05:33;25.50;39.40
57282;DHT22;43129;52.628;10.098;2023-07-20T12:07:59;26.40;36.50
57282;DHT22;43129;52.628;10.098;2023-07-20T12:10:27;26.50;36.10
57282;DHT22;43129;52.628;10.098;2023-07-20T12:13:02;27.30;35.80
57282;DHT22;43129;52.628;10.098;2023-07-20T12:15:32;26.00;35.90
57282;DHT22;43129;52.628;10.098;2023-07-20T12:18:02;25.70;38.90
57282;DHT22;43129;52.628;10.098;2023-07-20T12:20:34;25.20;40.20
57282;DHT22;43129;52.628;10.098;2023-07-20T12:23:12;25.00;40.00
57282;DHT22;43129;52.628;10.098;2023-07-20T12:28:08;25.60;39.10
57282;DHT22;43129;52.628;10.098;2023-07-20T12:30:34;25.30;38.80
57282;DHT22;43129;52.628;10.098;2023-07-20T12:33:01;24.30;39.90
57282;DHT22;43129;52.628;10.098;2023-07-20T12:35:29;24.00;41.70
57282;DHT22;43129;52.628;10.098;2023-07-20T12:37:55;23.90;42.60
57282;DHT22;43129;52.628;10.098;2023-07-20T12:40:21;23.80;42.20
57282;DHT22;43129;52.628;10.098;2023-07-20T12:42:46;23.90;42.80
57282;DHT22;43129;52.628;10.098;2023-07-20T12:45:13;24.50;42.00
57282;DHT22;43129;52.628;10.098;2023-07-20T12:47:41;25.00;40.50
57282;DHT22;43129;52.628;10.098;2023-07-20T12:50:11;26.00;38.60
57282;DHT22;43129;52.628;10.098;2023-07-20T12:52:39;26.30;37.20
57282;DHT22;43129;52.628;10.098;2023-07-20T12:55:09;26.20;37.90
57282;DHT22;43129;52.628;10.098;2023-07-20T12:57:35;24.90;38.70
57282;DHT22;43129;52.628;10.098;2023-07-20T13:00:09;24.30;40.80
57282;DHT22;43129;52.628;10.098;2023-07-20T13:02:37;24.20;42.30
57282;DHT22;43129;52.628;10.098;2023-07-20T13:05:05;24.40;42.20
57282;DHT22;43129;52.628;10.098;2023-07-20T13:07:32;24.30;43.10
57282;DHT22;43129;52.628;10.098;2023-07-20T13:10:04;24.00;43.70
57282;DHT22;43129;52.628;10.098;2023-07-20T13:12:33;23.60;45.60
57282;DHT22;43129;52.628;10.098;2023-07-20T13:15:00;23.60;46.60
57282;DHT22;43129;52.628;10.098;2023-07-20T13:17:28;23.30;47.20
57282;DHT22;43129;52.628;10.098;2023-07-20T13:19:55;23.30;48.10
57282;DHT22;43129;52.628;10.098;2023-07-20T13:22:20;23.40;48.90
57282;DHT22;43129;52.628;10.098;2023-07-20T13:24:46;23.50;49.10
57282;DHT22;43129;52.628;10.098;2023-07-20T13:27:14;23.70;49.70
57282;DHT22;43129;52.628;10.098;2023-07-20T13:29:43;23.60;49.80
57282;DHT22;43129;52.628;10.098;2023-07-20T13:32:09;23.20;50.40
57282;DHT22;43129;52.628;10.098;2023-07-20T13:34:37;22.90;50.50
57282;DHT22;43129;52.628;10.098;2023-07-20T13:37:03;22.70;49.80
57282;DHT22;43129;52.628;10.098;2023-07-20T13:39:31;23.00;49.70
57282;DHT22;43129;52.628;10.098;2023-07-20T13:41:59;22.50;50.00
57282;DHT22;43129;52.628;10.098;2023-07-20T13:44:27;23.00;49.90
57282;DHT22;43129;52.628;10.098;2023-07-20T13:46:55;23.30;49.70
57282;DHT22;43129;52.628;10.098;2023-07-20T13:49:21;23.30;48.30
57282;DHT22;43129;52.628;10.098;2023-07-20T13:51:49;23.90;47.40
57282;DHT22;43129;52.628;10.098;2023-07-20T13:54:20;24.10;47.30
57282;DHT22;43129;52.628;10.098;2023-07-20T13:56:45;24.00;45.50
57282;DHT22;43129;52.628;10.098;2023-07-20T13:59:11;23.50;46.00
57282;DHT22;43129;52.628;10.098;2023-07-20T14:01:39;23.40;46.80
57282;DHT22;43129;52.628;10.098;2023-07-20T14:04:07;23.30;46.60
57282;DHT22;43129;52.628;10.098;2023-07-20T14:06:36;22.80;47.80
57282;DHT22;43129;52.628;10.098;2023-07-20T14:09:07;22.80;48.50
57282;DHT22;43129;52.628;10.098;2023-07-20T14:11:32;22.90;49.50
57282;DHT22;43129;52.628;10.098;2023-07-20T14:14:00;23.00;49.00
57282;DHT22;43129;52.628;10.098;2023-07-20T14:16:29;23.00;48.20
57282;DHT22;43129;52.628;10.098;2023-07-20T14:18:55;22.30;49.60
57282;DHT22;43129;52.628;10.098;2023-07-20T14:21:23;22.10;51.00
57282;DHT22;43129;52.628;10.098;2023-07-20T14:23:51;22.20;51.60
57282;DHT22;43129;52.628;10.098;2023-07-20T14:26:18;22.60;50.80
57282;DHT22;43129;52.628;10.098;2023-07-20T14:28:44;23.20;48.50
57282;DHT22;43129;52.628;10.098;2023-07-20T14:31:10;23.60;46.50
57282;DHT22;43129;52.628;10.098;2023-07-20T14:33:35;23.70;45.50
57282;DHT22;43129;52.628;10.098;2023-07-20T14:36:02;23.90;44.80
57282;DHT22;43129;52.628;10.098;2023-07-20T14:38:28;23.80;43.90
57282;DHT22;43129;52.628;10.098;2023-07-20T14:40:56;24.30;42.20
57282;DHT22;43129;52.628;10.098;2023-07-20T14:43:22;24.30;40.60
57282;DHT22;43129;52.628;10.098;2023-07-20T14:45:48;23.90;41.90
57282;DHT22;43129;52.628;10.098;2023-07-20T14:48:13;25.10;40.90
57282;DHT22;43129;52.628;10.098;2023-07-20T14:50:41;25.70;38.40
57282;DHT22;43129;52.628;10.098;2023-07-20T14:53:07;25.80;37.30
57282;DHT22;43129;52.628;10.098;2023-07-20T14:55:33;27.40;37.50
57282;DHT22;43129;52.628;10.098;2023-07-20T14:58:01;28.30;37.30
57282;DHT22;43129;52.628;10.098;2023-07-20T15:00:27;29.30;35.70
57282;DHT22;43129;52.628;10.098;2023-07-20T15:02:55;29.60;34.70
57282;DHT22;43129;52.628;10.098;2023-07-20T15:05:24;29.90;33.50
57282;DHT22;43129;52.628;10.098;2023-07-20T15:07:52;29.70;33.10
57282;DHT22;43129;52.628;10.098;2023-07-20T15:10:18;30.30;32.30
57282;DHT22;43129;52.628;10.098;2023-07-20T15:12:47;30.70;31.00
57282;DHT22;43129;52.628;10.098;2023-07-20T15:15:13;30.80;30.30
57282;DHT22;43129;52.628;10.098;2023-07-20T15:17:41;31.10;29.70
57282;DHT22;43129;52.628;10.098;2023-07-20T15:20:09;31.00;30.00
57282;DHT22;43129;52.628;10.098;2023-07-20T15:22:35;31.70;29.20
57282;DHT22;43129;52.628;10.098;2023-07-20T15:25:05;30.20;29.70
57282;DHT22;43129;52.628;10.098;2023-07-20T15:27:31;29.00;32.00
57282;DHT22;43129;52.628;10.098;2023-07-20T15:29:57;28.30;32.80
57282;DHT22;43129;52.628;10.098;2023-07-20T15:32:22;27.00;34.80
57282;DHT22;43129;52.628;10.098;2023-07-20T15:34:48;26.20;37.10
57282;DHT22;43129;52.628;10.098;2023-07-20T15:37:14;25.60;38.90
57282;DHT22;43129;52.628;10.098;2023-07-20T15:39:42;26.20;38.50
57282;DHT22;43129;52.628;10.098;2023-07-20T15:42:08;26.60;36.70
57282;DHT22;43129;52.628;10.098;2023-07-20T15:44:35;27.00;36.70
57282;DHT22;43129;52.628;10.098;2023-07-20T15:47:04;26.60;37.00